LERM weather

Public forecast

Using degrees Celsius for public forecast. Weather courtesy of forecast.io.

Closest aviation weather report (METAR) to Robledillo De Mohernando Airport

Closest report is Torrejón Airport, 23.9 nm (44.3 km) SSW. Retrieved 2020/08/13 14:00 UTC (7 minutes ago):

LETO 131400Z 23006KT 170V330 CAVOK 29/12 Q1017 NOSIG

Closest aviation forecast (TAF) to Robledillo De Mohernando Airport

Closest forecast is Torrejón Airport, 23.9 nm (44.3 km) SSW. Retrieved 2020/08/13 12:27 UTC (2 hours ago):

TAF LETO 131100Z 1312/1412 VRB04KT CAVOK TX30/1316Z TN15/1406Z PROB40 TEMPO 1312/1319 22010KT TEMPO 1411/1412 23010KT